createdAt,value
2022-12-01T00:00:11.130Z,96.71
2022-12-01T00:01:11.380Z,96.71
2022-12-01T00:02:11.266Z,96.50
2022-12-01T00:03:31.381Z,96.50
2022-12-01T00:04:11.159Z,96.45
2022-12-01T00:05:11.422Z,96.45
2022-12-01T00:06:11.166Z,96.75
2022-12-01T00:07:11.413Z,96.86
2022-12-01T00:08:11.170Z,96.86
2022-12-01T00:09:13.980Z,96.96
2022-12-01T00:10:12.180Z,97.17
2022-12-01T00:11:10.957Z,96.96
2022-12-01T00:12:11.200Z,96.96
2022-12-01T00:13:30.963Z,97.02
2022-12-01T00:14:11.197Z,97.02
2022-12-01T00:15:10.982Z,96.92
2022-12-01T00:16:11.313Z,96.81
2022-12-01T00:17:10.984Z,96.71
2022-12-01T00:18:11.251Z,96.50
2022-12-01T00:19:11.015Z,96.50
2022-12-01T00:20:11.282Z,96.55
2022-12-01T00:21:11.006Z,96.71
2022-12-01T00:22:11.267Z,96.75
2022-12-01T00:23:32.035Z,96.86
2022-12-01T00:24:10.850Z,96.75
2022-12-01T00:25:11.081Z,96.86
2022-12-01T00:26:10.844Z,96.86
2022-12-01T00:27:11.074Z,96.86
2022-12-01T00:28:10.835Z,96.81
2022-12-01T00:29:11.065Z,97.02
2022-12-01T00:30:10.827Z,97.02
2022-12-01T00:31:11.055Z,97.02
2022-12-01T00:32:10.848Z,96.81
2022-12-01T00:33:32.560Z,96.55
2022-12-01T00:34:11.632Z,96.55
2022-12-01T00:35:11.097Z,96.45
2022-12-01T00:36:10.845Z,96.66
2022-12-01T00:37:11.098Z,96.75
2022-12-01T00:38:10.855Z,96.66
2022-12-01T00:39:11.087Z,96.66
2022-12-01T00:40:10.854Z,96.66
2022-12-01T00:41:11.079Z,96.55
2022-12-01T00:42:13.477Z,96.55
2022-12-01T00:43:32.576Z,96.75
2022-12-01T00:44:10.876Z,96.75
2022-12-01T00:45:10.630Z,96.75
2022-12-01T00:46:10.929Z,96.75
2022-12-01T00:47:10.618Z,96.66
2022-12-01T00:48:10.894Z,96.55
2022-12-01T00:49:10.619Z,96.55
2022-12-01T00:50:10.886Z,96.55
2022-12-01T00:51:10.634Z,96.66
2022-12-01T00:52:10.878Z,96.66
2022-12-01T00:53:31.280Z,96.66
2022-12-01T00:54:10.935Z,96.75
2022-12-01T00:55:10.678Z,96.96
2022-12-01T00:56:10.440Z,96.96
2022-12-01T00:57:10.699Z,96.96
2022-12-01T00:58:10.449Z,96.96
2022-12-01T00:59:10.695Z,97.17
2022-12-01T01:00:10.456Z,97.17
2022-12-01T01:01:10.776Z,97.17
2022-12-01T01:02:10.506Z,97.06
2022-12-01T01:03:31.418Z,96.96
2022-12-01T01:04:10.498Z,96.96
2022-12-01T01:05:10.736Z,96.96
2022-12-01T01:06:10.522Z,97.06
2022-12-01T01:07:10.744Z,96.96
2022-12-01T01:08:10.549Z,96.96
2022-12-01T01:09:10.723Z,96.96
2022-12-01T01:10:10.500Z,96.96
2022-12-01T01:11:10.731Z,97.17
2022-12-01T01:12:10.482Z,97.17
2022-12-01T01:13:31.453Z,97.17
2022-12-01T01:14:10.536Z,97.27
2022-12-01T01:15:10.270Z,97.17
2022-12-01T01:16:10.552Z,97.17
2022-12-01T01:17:10.256Z,97.11
2022-12-01T01:18:10.514Z,97.17
2022-12-01T01:19:10.256Z,97.31
2022-12-01T01:20:10.502Z,97.21
2022-12-01T01:21:10.241Z,97.11
2022-12-01T01:22:10.517Z,97.11
2022-12-01T01:23:30.966Z,97.11
2022-12-01T01:24:10.562Z,97.11
2022-12-01T01:25:10.295Z,97.11
2022-12-01T01:26:10.581Z,97.01
2022-12-01T01:27:10.297Z,97.01
2022-12-01T01:28:11.045Z,97.01
2022-12-01T01:29:10.277Z,97.11
2022-12-01T01:30:10.527Z,97.01
2022-12-01T01:31:10.326Z,96.80
2022-12-01T01:32:10.528Z,97.01
2022-12-01T01:33:30.989Z,97.11
2022-12-01T01:34:10.077Z,97.31
2022-12-01T01:35:10.319Z,97.11
2022-12-01T01:36:10.067Z,97.01
2022-12-01T01:37:10.316Z,97.11
2022-12-01T01:38:10.081Z,97.11
2022-12-01T01:39:10.326Z,97.11
2022-12-01T01:40:10.091Z,97.21
2022-12-01T01:41:10.338Z,97.01
2022-12-01T01:42:10.081Z,96.80
2022-12-01T01:43:31.877Z,96.80
2022-12-01T01:44:10.159Z,97.11
2022-12-01T01:45:10.409Z,97.11
2022-12-01T01:46:10.173Z,97.21
2022-12-01T01:47:10.413Z,97.31
2022-12-01T01:48:10.164Z,97.11
2022-12-01T01:49:09.901Z,97.11
2022-12-01T01:50:10.167Z,96.91
2022-12-01T01:51:10.392Z,96.70
2022-12-01T01:52:10.145Z,96.91
2022-12-01T01:53:31.383Z,96.80
2022-12-01T01:54:10.182Z,96.49
2022-12-01T01:55:09.937Z,96.39
2022-12-01T01:56:10.189Z,96.49
2022-12-01T01:57:09.936Z,96.70
2022-12-01T01:58:10.186Z,96.80
2022-12-01T01:59:09.928Z,96.59
2022-12-01T02:00:10.181Z,96.59
2022-12-01T02:01:09.942Z,96.70
2022-12-01T02:02:10.229Z,97.01
2022-12-01T02:03:31.533Z,97.21
2022-12-01T02:04:09.832Z,97.21
2022-12-01T02:05:10.065Z,97.21
2022-12-01T02:06:09.813Z,97.01
2022-12-01T02:07:10.061Z,97.11
2022-12-01T02:08:09.834Z,97.11
2022-12-01T02:09:10.041Z,97.01
2022-12-01T02:10:09.793Z,96.91
2022-12-01T02:11:10.039Z,97.11
2022-12-01T02:12:09.802Z,97.11
2022-12-01T02:13:30.806Z,97.42
2022-12-01T02:14:09.851Z,97.42
2022-12-01T02:15:10.083Z,97.42
2022-12-01T02:16:09.824Z,97.42
2022-12-01T02:17:10.089Z,97.31
2022-12-01T02:18:09.817Z,97.31
2022-12-01T02:19:10.073Z,97.31
2022-12-01T02:20:09.828Z,97.31
2022-12-01T02:21:09.554Z,97.21
2022-12-01T02:22:09.805Z,97.31
2022-12-01T02:23:30.784Z,97.11
2022-12-01T02:24:09.897Z,97.11
2022-12-01T02:25:09.641Z,96.91
2022-12-01T02:26:09.885Z,96.80
2022-12-01T02:27:10.605Z,96.91
2022-12-01T02:28:09.885Z,96.70
2022-12-01T02:29:09.608Z,96.49
2022-12-01T02:30:09.846Z,96.70
2022-12-01T02:31:10.113Z,96.74
2022-12-01T02:32:09.851Z,96.84
2022-12-01T02:33:31.105Z,97.16
2022-12-01T02:34:09.899Z,97.16
2022-12-01T02:35:09.626Z,97.31
2022-12-01T02:36:09.889Z,97.42
2022-12-01T02:37:09.610Z,97.42
2022-12-01T02:38:09.869Z,97.52
2022-12-01T02:39:09.600Z,97.42
2022-12-01T02:40:09.846Z,97.11
2022-12-01T02:41:09.578Z,97.05
2022-12-01T02:42:09.839Z,97.21
2022-12-01T02:43:30.349Z,97.26
2022-12-01T02:44:09.377Z,97.26
2022-12-01T02:45:09.618Z,97.26
2022-12-01T02:46:09.406Z,97.36
2022-12-01T02:47:09.599Z,97.47
2022-12-01T02:48:09.359Z,97.42
2022-12-01T02:49:09.605Z,97.36
2022-12-01T02:50:09.349Z,97.42
2022-12-01T02:51:09.590Z,97.52
2022-12-01T02:52:09.350Z,97.47
2022-12-01T02:53:31.139Z,97.47
2022-12-01T02:54:09.448Z,97.56
2022-12-01T02:55:09.681Z,97.67
2022-12-01T02:56:09.442Z,97.56
2022-12-01T02:57:09.672Z,97.56
2022-12-01T02:58:09.421Z,97.67
2022-12-01T02:59:09.653Z,97.47
2022-12-01T03:00:09.432Z,97.47
2022-12-01T03:01:09.790Z,97.56
2022-12-01T03:02:09.455Z,97.56
2022-12-01T03:03:30.403Z,97.77
2022-12-01T03:04:09.473Z,97.77
2022-12-01T03:05:09.225Z,97.88
2022-12-01T03:06:09.492Z,97.88
2022-12-01T03:07:09.242Z,97.88
2022-12-01T03:08:09.581Z,97.98
2022-12-01T03:09:09.273Z,97.94
2022-12-01T03:10:09.559Z,97.83
2022-12-01T03:11:09.332Z,97.83
2022-12-01T03:12:09.640Z,97.63
2022-12-01T03:13:30.981Z,97.73
2022-12-01T03:14:09.312Z,97.73
2022-12-01T03:15:09.103Z,97.83
2022-12-01T03:16:09.439Z,97.83
2022-12-01T03:17:09.149Z,97.83
2022-12-01T03:18:09.402Z,97.73
2022-12-01T03:19:09.197Z,97.63
2022-12-01T03:20:09.452Z,97.63
2022-12-01T03:21:09.306Z,97.63
2022-12-01T03:22:09.065Z,97.42
2022-12-01T03:23:29.877Z,97.42
2022-12-01T03:24:09.221Z,97.56
2022-12-01T03:25:09.009Z,97.56
2022-12-01T03:26:09.312Z,97.77
2022-12-01T03:27:09.065Z,97.88
2022-12-01T03:28:24.607Z,97.88
2022-12-01T03:29:10.096Z,97.98
2022-12-01T03:30:09.425Z,97.98
2022-12-01T03:31:09.248Z,97.83
2022-12-01T03:32:08.968Z,97.77
2022-12-01T03:33:30.714Z,97.77
2022-12-01T03:34:09.056Z,97.88
2022-12-01T03:35:09.314Z,97.88
2022-12-01T03:36:09.119Z,97.83
2022-12-01T03:37:08.855Z,97.88
2022-12-01T03:38:09.137Z,97.88
2022-12-01T03:39:08.877Z,97.67
2022-12-01T03:40:09.196Z,97.67
2022-12-01T03:41:08.907Z,97.77
2022-12-01T03:42:09.208Z,97.88
2022-12-01T03:43:29.659Z,97.88
2022-12-01T03:44:08.808Z,97.88
2022-12-01T03:45:09.097Z,97.88
2022-12-01T03:46:08.899Z,97.77
2022-12-01T03:47:09.131Z,97.83
2022-12-01T03:48:08.869Z,97.77
2022-12-01T03:49:09.119Z,97.63
2022-12-01T03:50:08.864Z,97.63
2022-12-01T03:51:09.135Z,97.63
2022-12-01T03:52:08.852Z,97.56
2022-12-01T03:53:30.613Z,97.52
2022-12-01T03:54:08.893Z,97.42
2022-12-01T03:55:08.651Z,97.52
2022-12-01T03:56:08.883Z,97.52
2022-12-01T03:57:08.642Z,97.42
2022-12-01T03:58:08.892Z,97.47
2022-12-01T03:59:08.642Z,97.47
2022-12-01T04:00:08.871Z,97.56
2022-12-01T04:01:08.627Z,97.52
2022-12-01T04:02:08.945Z,97.56
2022-12-01T04:03:29.420Z,97.73
2022-12-01T04:04:08.970Z,97.63
2022-12-01T04:05:08.725Z,97.73
2022-12-01T04:06:08.976Z,97.52
2022-12-01T04:07:08.745Z,97.56
2022-12-01T04:08:08.519Z,97.52
2022-12-01T04:09:08.726Z,97.56
2022-12-01T04:10:08.455Z,97.67
2022-12-01T04:11:08.716Z,97.56
2022-12-01T04:12:08.444Z,97.56
2022-12-01T04:13:30.282Z,97.63
2022-12-01T04:14:08.556Z,97.67
2022-12-01T04:15:08.814Z,97.63
2022-12-01T04:16:08.626Z,97.63
2022-12-01T04:17:08.848Z,97.47
2022-12-01T04:18:08.573Z,97.36
2022-12-01T04:19:08.858Z,97.36
2022-12-01T04:20:08.576Z,97.56
2022-12-01T04:21:08.836Z,97.67
2022-12-01T04:22:08.567Z,97.63
2022-12-01T04:23:30.420Z,97.47
2022-12-01T04:24:08.685Z,97.56
2022-12-01T04:25:08.440Z,97.56
2022-12-01T04:26:14.265Z,97.47
2022-12-01T04:27:09.418Z,97.56
2022-12-01T04:28:08.661Z,97.47
2022-12-01T04:29:08.420Z,97.47
2022-12-01T04:30:08.649Z,97.56
2022-12-01T04:31:08.470Z,97.63
2022-12-01T04:32:08.635Z,97.63
2022-12-01T04:33:29.906Z,97.73
2022-12-01T04:34:08.679Z,97.63
2022-12-01T04:35:08.422Z,97.47
2022-12-01T04:36:08.659Z,97.36
2022-12-01T04:37:08.418Z,97.36
2022-12-01T04:38:08.651Z,97.36
2022-12-01T04:39:08.424Z,97.47
2022-12-01T04:40:08.179Z,97.47
2022-12-01T04:41:08.433Z,97.56
2022-12-01T04:42:08.159Z,97.67
2022-12-01T04:43:29.970Z,97.77
2022-12-01T04:44:08.255Z,97.77
2022-12-01T04:45:08.511Z,97.77
2022-12-01T04:46:08.266Z,97.88
2022-12-01T04:47:08.522Z,97.77
2022-12-01T04:48:08.233Z,97.67
2022-12-01T04:49:08.493Z,97.67
2022-12-01T04:50:08.230Z,97.77
2022-12-01T04:51:08.491Z,97.88
2022-12-01T04:52:08.240Z,97.88
2022-12-01T04:53:29.993Z,97.88
2022-12-01T04:54:08.283Z,97.77
2022-12-01T04:55:08.055Z,97.77
2022-12-01T04:56:08.285Z,97.77
2022-12-01T04:57:08.033Z,97.77
2022-12-01T04:58:08.274Z,97.77
2022-12-01T04:59:08.028Z,97.88
2022-12-01T05:00:08.265Z,97.88
2022-12-01T05:01:08.115Z,97.88
2022-12-01T05:02:08.318Z,97.98
2022-12-01T05:03:29.500Z,97.94
2022-12-01T05:04:08.273Z,97.94
2022-12-01T05:05:08.050Z,97.83
2022-12-01T05:06:08.285Z,97.73
2022-12-01T05:07:08.038Z,97.77
2022-12-01T05:08:08.374Z,97.67
2022-12-01T05:09:08.031Z,97.67
2022-12-01T05:10:08.254Z,97.63
2022-12-01T05:11:08.007Z,97.47
2022-12-01T05:12:08.258Z,97.56
2022-12-01T05:13:28.928Z,97.56
2022-12-01T05:14:07.846Z,97.56
2022-12-01T05:15:08.086Z,97.73
2022-12-01T05:16:07.897Z,97.73
2022-12-01T05:17:08.106Z,97.47
2022-12-01T05:18:07.850Z,97.47
2022-12-01T05:19:08.106Z,97.56
2022-12-01T05:20:07.878Z,97.67
2022-12-01T05:21:08.098Z,97.67
2022-12-01T05:22:07.830Z,97.67
2022-12-01T05:23:29.081Z,97.67
2022-12-01T05:24:07.866Z,97.67
2022-12-01T05:25:08.126Z,97.56
2022-12-01T05:26:07.902Z,97.36
2022-12-01T05:27:08.125Z,97.36
2022-12-01T05:28:07.858Z,97.36
2022-12-01T05:29:08.124Z,97.36
2022-12-01T05:30:07.867Z,97.36
2022-12-01T05:31:08.168Z,97.47
2022-12-01T05:32:07.861Z,97.47
2022-12-01T05:33:29.617Z,97.36
2022-12-01T05:34:07.900Z,97.16
2022-12-01T05:35:07.658Z,97.26
2022-12-01T05:36:07.897Z,97.26
2022-12-01T05:37:07.656Z,97.36
2022-12-01T05:38:08.349Z,97.47
2022-12-01T05:39:07.641Z,97.47
2022-12-01T05:40:07.881Z,97.36
2022-12-01T05:41:07.650Z,97.47
2022-12-01T05:42:07.891Z,97.47
2022-12-01T05:43:29.607Z,97.56
2022-12-01T05:44:07.495Z,97.47
2022-12-01T05:45:07.722Z,97.36
2022-12-01T05:46:07.494Z,97.26
2022-12-01T05:47:07.727Z,97.36
2022-12-01T05:48:07.495Z,97.47
2022-12-01T05:49:07.704Z,97.56
2022-12-01T05:50:07.479Z,97.67
2022-12-01T05:51:07.714Z,97.56
2022-12-01T05:52:07.474Z,97.47
2022-12-01T05:53:29.214Z,97.26
2022-12-01T05:54:07.513Z,97.05
2022-12-01T05:55:07.749Z,97.05
2022-12-01T05:56:07.496Z,96.95
2022-12-01T05:57:07.736Z,97.05
2022-12-01T05:58:07.488Z,97.05
2022-12-01T05:59:07.736Z,97.05
2022-12-01T06:00:07.494Z,97.05
2022-12-01T06:01:07.693Z,96.95
2022-12-01T06:02:07.485Z,97.05
2022-12-01T06:03:29.196Z,97.16
2022-12-01T06:04:07.509Z,97.16
2022-12-01T06:05:07.726Z,97.16
2022-12-01T06:06:07.468Z,97.05
2022-12-01T06:07:07.714Z,97.05
2022-12-01T06:08:07.463Z,97.16
2022-12-01T06:09:07.720Z,97.16
2022-12-01T06:10:07.450Z,97.16
2022-12-01T06:11:07.704Z,96.95
2022-12-01T06:12:07.448Z,96.95
2022-12-01T06:13:29.209Z,96.95
2022-12-01T06:14:07.488Z,97.05
2022-12-01T06:15:07.250Z,97.05
2022-12-01T06:16:07.511Z,96.95
2022-12-01T06:17:07.242Z,96.95
2022-12-01T06:18:07.489Z,96.95
2022-12-01T06:19:07.248Z,97.05
2022-12-01T06:20:07.491Z,97.05
2022-12-01T06:21:07.259Z,97.05
2022-12-01T06:22:07.502Z,97.16
2022-12-01T06:23:30.620Z,97.16
2022-12-01T06:24:08.553Z,96.95
2022-12-01T06:25:07.375Z,96.84
2022-12-01T06:26:07.102Z,96.95
2022-12-01T06:27:07.366Z,96.95
2022-12-01T06:28:07.131Z,96.95
2022-12-01T06:29:07.392Z,96.74
2022-12-01T06:30:07.153Z,96.53
2022-12-01T06:31:07.405Z,96.44
2022-12-01T06:32:07.203Z,96.33
2022-12-01T06:33:28.964Z,96.53
2022-12-01T06:34:07.248Z,96.53
2022-12-01T06:35:07.519Z,96.74
2022-12-01T06:36:07.266Z,96.84
2022-12-01T06:37:07.013Z,96.95
2022-12-01T06:38:07.260Z,97.05
2022-12-01T06:39:06.992Z,97.05
2022-12-01T06:40:07.243Z,97.05
2022-12-01T06:41:07.004Z,97.05
2022-12-01T06:42:07.231Z,97.16
2022-12-01T06:43:28.005Z,97.05
2022-12-01T06:44:07.277Z,97.16
2022-12-01T06:45:07.065Z,97.16
2022-12-01T06:46:07.320Z,97.16
2022-12-01T06:47:07.043Z,97.05
2022-12-01T06:48:07.275Z,97.16
2022-12-01T06:49:07.032Z,96.84
2022-12-01T06:50:07.277Z,96.84
2022-12-01T06:51:07.024Z,96.95
2022-12-01T06:52:07.273Z,97.05
2022-12-01T06:53:28.045Z,97.05
2022-12-01T06:54:06.833Z,96.95
2022-12-01T06:55:07.074Z,96.84
2022-12-01T06:56:06.826Z,96.64
2022-12-01T06:57:07.091Z,96.44
2022-12-01T06:58:06.829Z,96.23
2022-12-01T06:59:07.087Z,96.33
2022-12-01T07:00:06.851Z,96.53
2022-12-01T07:01:07.159Z,96.64
2022-12-01T07:02:06.949Z,96.74
2022-12-01T07:03:28.643Z,96.74
2022-12-01T07:04:06.959Z,96.64
2022-12-01T07:05:07.228Z,96.53
2022-12-01T07:06:06.936Z,96.44
2022-12-01T07:07:06.689Z,96.44
2022-12-01T07:08:06.950Z,96.44
2022-12-01T07:09:06.681Z,96.44
2022-12-01T07:10:06.918Z,96.53
2022-12-01T07:11:06.677Z,96.53
2022-12-01T07:12:06.929Z,96.53
2022-12-01T07:13:33.147Z,96.74
2022-12-01T07:14:08.005Z,96.64
2022-12-01T07:15:06.090Z,96.74
2022-12-01T07:16:06.799Z,96.74
2022-12-01T07:17:07.116Z,96.74
2022-12-01T07:18:06.813Z,96.84
2022-12-01T07:19:06.560Z,96.95
2022-12-01T07:20:06.812Z,96.84
2022-12-01T07:21:06.573Z,96.84
2022-12-01T07:22:06.805Z,96.53
2022-12-01T07:23:27.520Z,96.44
2022-12-01T07:24:06.860Z,96.53
2022-12-01T07:25:06.619Z,96.53
2022-12-01T07:26:06.855Z,96.44
2022-12-01T07:27:06.621Z,96.44
2022-12-01T07:28:06.841Z,96.53
2022-12-01T07:29:06.621Z,96.64
2022-12-01T07:30:06.841Z,96.64
2022-12-01T07:31:06.709Z,96.44
2022-12-01T07:32:06.847Z,96.44
2022-12-01T07:33:28.177Z,96.53
2022-12-01T07:34:06.467Z,96.53
2022-12-01T07:35:06.734Z,96.74
2022-12-01T07:36:06.484Z,96.74
2022-12-01T07:37:06.733Z,96.84
2022-12-01T07:38:06.472Z,96.64
2022-12-01T07:39:06.757Z,96.53
2022-12-01T07:40:06.484Z,96.44
2022-12-01T07:41:06.742Z,96.53
2022-12-01T07:42:06.489Z,96.64
2022-12-01T07:43:28.242Z,96.33
2022-12-01T07:44:06.547Z,96.33
2022-12-01T07:45:06.309Z,96.44
2022-12-01T07:46:06.640Z,96.53
2022-12-01T07:47:06.299Z,96.53
2022-12-01T07:48:06.565Z,96.33
2022-12-01T07:49:06.313Z,96.23
2022-12-01T07:50:06.646Z,96.12
2022-12-01T07:51:06.291Z,96.23
2022-12-01T07:52:06.536Z,96.33
2022-12-01T07:53:27.284Z,96.23
2022-12-01T07:54:06.591Z,96.12
2022-12-01T07:55:06.327Z,96.12
2022-12-01T07:56:08.838Z,96.12
2022-12-01T07:57:06.326Z,96.23
2022-12-01T07:58:06.586Z,96.44
2022-12-01T07:59:06.318Z,96.33
2022-12-01T08:00:06.601Z,96.33
2022-12-01T08:01:06.350Z,96.33
2022-12-01T08:02:06.684Z,96.23
2022-12-01T08:03:27.040Z,96.23
2022-12-01T08:04:06.156Z,96.12
2022-12-01T08:05:06.392Z,95.81
2022-12-01T08:06:06.133Z,95.71
2022-12-01T08:07:06.363Z,95.61
2022-12-01T08:08:06.187Z,95.61
2022-12-01T08:09:06.432Z,95.50
2022-12-01T08:10:06.137Z,95.50
2022-12-01T08:11:06.378Z,95.40
2022-12-01T08:12:06.135Z,95.61
2022-12-01T08:13:26.400Z,95.61
2022-12-01T08:14:06.147Z,95.50
2022-12-01T08:15:06.401Z,95.30
2022-12-01T08:16:06.245Z,95.30
2022-12-01T08:17:06.389Z,95.20
2022-12-01T08:18:06.188Z,95.20
2022-12-01T08:19:06.398Z,95.30
2022-12-01T08:20:06.162Z,95.25
2022-12-01T08:21:06.393Z,95.36
2022-12-01T08:22:05.399Z,95.15
2022-12-01T08:23:26.941Z,95.05
2022-12-01T08:24:05.389Z,94.95
2022-12-01T08:25:05.359Z,94.95
2022-12-01T08:26:06.112Z,94.84
2022-12-01T08:27:06.359Z,94.74
2022-12-01T08:28:06.122Z,94.68
2022-12-01T08:29:05.857Z,94.68
2022-12-01T08:30:05.417Z,94.78
2022-12-01T08:31:05.416Z,94.78
2022-12-01T08:32:05.560Z,94.95
2022-12-01T08:33:25.493Z,94.32
2022-12-01T08:34:05.293Z,94.37
2022-12-01T08:35:06.712Z,94.02
2022-12-01T08:36:05.286Z,93.85
2022-12-01T08:37:05.233Z,94.06
2022-12-01T08:38:05.241Z,94.32
2022-12-01T08:39:05.259Z,94.43
2022-12-01T08:40:05.236Z,94.53
2022-12-01T08:41:05.211Z,94.43
2022-12-01T08:42:05.199Z,94.43
2022-12-01T08:44:06.214Z,94.23
2022-12-01T08:45:05.229Z,94.23
2022-12-01T08:46:05.955Z,94.12
2022-12-01T08:47:05.668Z,93.81
2022-12-01T08:48:05.934Z,93.71
2022-12-01T08:49:05.694Z,93.81
2022-12-01T08:50:05.937Z,93.91
2022-12-01T08:51:05.670Z,94.02
2022-12-01T08:52:05.924Z,94.12
2022-12-01T08:53:25.710Z,94.12
2022-12-01T08:54:05.952Z,94.23
2022-12-01T08:55:05.696Z,94.02
2022-12-01T08:56:05.954Z,93.91
2022-12-01T08:57:05.710Z,93.60
2022-12-01T08:58:05.955Z,93.60
2022-12-01T08:59:05.710Z,93.40
2022-12-01T09:00:05.997Z,93.50
2022-12-01T09:01:05.717Z,93.56
2022-12-01T09:02:07.170Z,93.56
2022-12-01T09:03:25.730Z,93.35
2022-12-01T09:04:06.369Z,93.25
2022-12-01T09:05:05.712Z,93.25
2022-12-01T09:06:05.486Z,93.15
2022-12-01T09:07:05.727Z,93.15
2022-12-01T09:08:05.548Z,93.25
2022-12-01T09:09:05.741Z,93.35
2022-12-01T09:10:05.496Z,93.05
2022-12-01T09:11:05.742Z,92.84
2022-12-01T09:12:05.489Z,92.63
2022-12-01T09:13:25.748Z,92.12
2022-12-01T09:14:05.490Z,92.12
2022-12-01T09:15:05.732Z,91.91
2022-12-01T09:16:05.551Z,91.81
2022-12-01T09:17:05.730Z,91.60
2022-12-01T09:18:05.499Z,91.60
2022-12-01T09:19:05.741Z,91.71
2022-12-01T09:20:05.509Z,91.91
2022-12-01T09:21:05.740Z,92.12
2022-12-01T09:22:05.513Z,92.22
2022-12-01T09:23:25.768Z,91.81
2022-12-01T09:24:05.514Z,91.81
2022-12-01T09:25:05.753Z,92.12
2022-12-01T09:26:07.793Z,91.97
2022-12-01T09:27:05.243Z,92.18
2022-12-01T09:28:05.508Z,92.18
2022-12-01T09:29:05.251Z,91.46
2022-12-01T09:30:05.514Z,91.46
2022-12-01T09:31:05.275Z,91.56
2022-12-01T09:32:05.519Z,91.15
2022-12-01T09:33:25.291Z,90.94
2022-12-01T09:34:05.522Z,90.84
2022-12-01T09:35:05.250Z,91.05
2022-12-01T09:36:05.518Z,90.73
2022-12-01T09:37:05.263Z,90.43
2022-12-01T09:38:05.591Z,90.43
2022-12-01T09:39:05.274Z,90.53
2022-12-01T09:40:05.543Z,90.43
2022-12-01T09:41:05.786Z,90.33
2022-12-01T09:42:09.103Z,90.43
2022-12-01T09:43:25.305Z,90.43
2022-12-01T09:44:05.533Z,90.53
2022-12-01T09:45:05.303Z,90.43
2022-12-01T09:46:05.547Z,90.64
2022-12-01T09:47:05.321Z,90.84
2022-12-01T09:48:05.038Z,90.73
2022-12-01T09:49:05.302Z,90.12
2022-12-01T09:50:05.032Z,90.22
2022-12-01T09:51:05.287Z,90.43
2022-12-01T09:52:05.046Z,90.69
2022-12-01T09:53:25.321Z,90.59
2022-12-01T09:54:05.039Z,90.69
2022-12-01T09:55:05.323Z,90.69
2022-12-01T09:56:11.539Z,90.90
2022-12-01T09:57:06.318Z,90.90
2022-12-01T09:58:05.059Z,90.59
2022-12-01T09:59:05.318Z,90.28
2022-12-01T10:00:05.053Z,89.87
2022-12-01T10:01:05.370Z,89.87
2022-12-01T10:02:05.113Z,89.97
2022-12-01T10:03:25.339Z,90.14
2022-12-01T10:04:05.056Z,90.14
2022-12-01T10:05:05.422Z,89.42
2022-12-01T10:07:06.337Z,89.11
2022-12-01T10:08:05.157Z,89.11
2022-12-01T10:09:05.349Z,89.22
2022-12-01T10:10:05.061Z,88.39
2022-12-01T10:11:04.824Z,88.59
2022-12-01T10:12:05.041Z,88.90
2022-12-01T10:13:24.809Z,88.90
2022-12-01T10:14:05.028Z,88.39
2022-12-01T10:15:04.777Z,88.29
2022-12-01T10:16:05.070Z,87.77
2022-12-01T10:17:04.778Z,87.36
2022-12-01T10:18:05.044Z,87.46
2022-12-01T10:19:04.780Z,87.77
2022-12-01T10:20:05.052Z,88.18
2022-12-01T10:21:04.793Z,88.04
2022-12-01T10:22:05.055Z,87.84
2022-12-01T10:23:24.830Z,87.38
2022-12-01T10:24:05.062Z,87.49
2022-12-01T10:25:04.802Z,87.12
2022-12-01T10:26:05.068Z,86.66
2022-12-01T10:27:04.802Z,86.56
2022-12-01T10:28:05.079Z,86.66
2022-12-01T10:29:04.801Z,86.46
2022-12-01T10:30:05.096Z,86.77
2022-12-01T10:31:04.885Z,86.25
2022-12-01T10:32:04.594Z,86.05
2022-12-01T10:33:24.859Z,86.46
2022-12-01T10:34:04.571Z,86.35
2022-12-01T10:35:04.814Z,86.25
2022-12-01T10:36:04.576Z,86.21
2022-12-01T10:37:04.813Z,85.70
2022-12-01T10:38:04.659Z,85.60
2022-12-01T10:39:04.814Z,85.70
2022-12-01T10:40:04.569Z,85.90
2022-12-01T10:41:04.788Z,85.60
2022-12-01T10:42:04.548Z,85.08
2022-12-01T10:43:24.811Z,85.25
2022-12-01T10:44:04.556Z,85.14
2022-12-01T10:45:04.789Z,84.74
2022-12-01T10:46:04.600Z,84.32
2022-12-01T10:47:04.777Z,84.53
2022-12-01T10:48:04.528Z,84.32
2022-12-01T10:49:04.757Z,84.32
2022-12-01T10:50:04.520Z,84.22
2022-12-01T10:51:04.750Z,84.22
2022-12-01T10:52:04.505Z,83.70
2022-12-01T10:53:24.777Z,83.46
2022-12-01T10:54:04.529Z,83.15
2022-12-01T10:55:04.745Z,82.68
2022-12-01T10:56:04.500Z,82.75
2022-12-01T10:57:04.748Z,82.84
2022-12-01T10:58:09.093Z,83.01
2022-12-01T10:59:05.731Z,83.01
2022-12-01T11:00:04.477Z,83.01
2022-12-01T11:01:04.715Z,82.70
2022-12-01T11:02:04.626Z,82.70
2022-12-01T11:03:24.864Z,82.46
2022-12-01T11:04:04.481Z,82.36
2022-12-01T11:05:04.218Z,81.13
2022-12-01T11:06:05.959Z,81.34
2022-12-01T11:07:05.824Z,81.23
2022-12-01T11:08:06.185Z,80.23
2022-12-01T11:09:05.134Z,79.07
2022-12-01T11:10:05.749Z,78.35
2022-12-01T11:11:06.044Z,77.97
2022-12-01T11:12:05.860Z,77.09
2022-12-01T11:13:24.696Z,77.80
2022-12-01T11:14:05.140Z,77.76
2022-12-01T11:15:04.357Z,77.87
2022-12-01T11:16:05.695Z,76.91
2022-12-01T11:17:05.915Z,76.09
2022-12-01T11:18:04.903Z,74.52
2022-12-01T11:19:06.071Z,73.64
2022-12-01T11:20:05.380Z,72.08
2022-12-01T11:21:05.611Z,70.82
2022-12-01T11:22:05.977Z,70.81
2022-12-01T11:23:24.294Z,73.13
2022-12-01T11:24:06.024Z,73.44
2022-12-01T11:25:05.865Z,74.15
2022-12-01T11:26:05.189Z,74.69
2022-12-01T11:27:05.139Z,74.76
2022-12-01T11:28:05.760Z,75.00
2022-12-01T11:29:05.551Z,75.45
2022-12-01T11:30:05.936Z,75.65
2022-12-01T11:31:04.230Z,75.59
2022-12-01T11:32:04.031Z,75.82
2022-12-01T11:33:24.261Z,75.52
2022-12-01T11:34:04.000Z,75.24
2022-12-01T11:35:04.234Z,76.81
2022-12-01T11:36:04.000Z,77.77
2022-12-01T11:37:04.230Z,76.85
2022-12-01T11:38:28.777Z,78.32
2022-12-01T11:39:05.255Z,78.56
2022-12-01T11:40:04.029Z,79.18
2022-12-01T11:41:04.282Z,79.69
2022-12-01T11:42:04.047Z,80.31
2022-12-01T11:43:24.290Z,80.96
2022-12-01T11:44:06.361Z,81.48
2022-12-01T11:45:05.283Z,80.24
2022-12-01T11:46:04.088Z,80.65
2022-12-01T11:47:22.218Z,81.48
2022-12-01T11:48:05.000Z,81.78
2022-12-01T11:49:04.252Z,81.48
2022-12-01T11:50:03.989Z,81.57
2022-12-01T11:51:05.699Z,81.48
2022-12-01T11:52:03.982Z,81.43
2022-12-01T11:53:25.404Z,81.16
2022-12-01T11:54:04.112Z,81.37
2022-12-01T11:55:09.791Z,81.16
2022-12-01T11:56:05.105Z,80.86
2022-12-01T11:57:32.400Z,81.48
2022-12-01T11:58:05.111Z,81.57
2022-12-01T11:59:03.867Z,81.57
2022-12-01T12:00:04.107Z,81.48
2022-12-01T12:01:03.882Z,81.68
2022-12-01T12:02:04.150Z,81.88
2022-12-01T12:03:25.393Z,81.41
2022-12-01T12:04:03.657Z,81.51
2022-12-01T12:05:03.916Z,81.71
2022-12-01T12:06:18.195Z,81.51
2022-12-01T12:07:05.648Z,82.13
2022-12-01T12:08:04.605Z,82.54
2022-12-01T12:09:03.943Z,81.65
2022-12-01T12:10:05.075Z,82.17
2022-12-01T12:11:04.920Z,82.33
2022-12-01T12:12:04.261Z,82.95
2022-12-01T12:13:24.682Z,82.84
2022-12-01T12:14:04.294Z,83.05
2022-12-01T12:15:03.956Z,82.64
2022-12-01T12:16:04.328Z,82.91
2022-12-01T12:17:04.297Z,82.91
2022-12-01T12:18:04.411Z,83.01
2022-12-01T12:19:03.980Z,81.99
2022-12-01T12:20:08.439Z,81.27
2022-12-01T12:21:04.469Z,81.27
2022-12-01T12:22:05.705Z,81.30
2022-12-01T12:23:25.011Z,80.96
2022-12-01T12:24:03.805Z,81.16
2022-12-01T12:25:03.548Z,81.88
2022-12-01T12:26:03.773Z,82.29
2022-12-01T12:27:03.553Z,81.57
2022-12-01T12:28:03.786Z,81.37
2022-12-01T12:29:03.531Z,81.88
2022-12-01T12:30:05.222Z,81.99
2022-12-01T12:31:03.571Z,81.88
2022-12-01T12:32:03.808Z,80.69
2022-12-01T12:33:24.570Z,81.71
2022-12-01T12:34:03.343Z,82.03
2022-12-01T12:35:03.601Z,81.62
2022-12-01T12:36:03.336Z,82.23
2022-12-01T12:37:03.596Z,82.64
2022-12-01T12:38:03.330Z,82.95
2022-12-01T12:39:03.595Z,82.84
2022-12-01T12:40:03.357Z,82.33
2022-12-01T12:41:03.613Z,82.33
2022-12-01T12:42:03.350Z,82.54
2022-12-01T12:43:25.116Z,82.13
2022-12-01T12:44:03.478Z,82.13
2022-12-01T12:45:03.653Z,82.13
2022-12-01T12:46:03.449Z,81.41
2022-12-01T12:47:03.165Z,82.43
2022-12-01T12:48:03.439Z,81.76
2022-12-01T12:49:19.270Z,82.27
2022-12-01T12:50:04.395Z,82.27
2022-12-01T12:51:03.161Z,82.37
2022-12-01T12:52:08.444Z,81.86
2022-12-01T12:53:25.203Z,82.06
2022-12-01T12:54:03.573Z,81.34